createdAt,value
2018-06-09T00:00:28.652Z,99.90
2018-06-09T00:02:56.950Z,99.90
2018-06-09T00:05:25.274Z,99.90
2018-06-09T00:07:53.653Z,99.90
2018-06-09T00:10:21.934Z,99.90
2018-06-09T00:12:50.261Z,99.90
2018-06-09T00:15:18.627Z,99.90
2018-06-09T00:17:47.029Z,99.90
2018-06-09T00:20:15.365Z,99.90
2018-06-09T00:22:43.714Z,99.90
2018-06-09T00:25:12.018Z,99.90
2018-06-09T00:27:40.335Z,99.90
2018-06-09T00:30:08.698Z,99.90
2018-06-09T00:32:36.994Z,99.90
2018-06-09T00:35:05.307Z,99.90
2018-06-09T00:37:33.666Z,99.90
2018-06-09T00:40:02.044Z,99.90
2018-06-09T00:42:30.625Z,99.90
2018-06-09T00:44:58.984Z,99.90
2018-06-09T00:47:27.282Z,99.90
2018-06-09T00:49:55.582Z,99.90
2018-06-09T00:52:23.979Z,99.90
2018-06-09T00:54:52.725Z,99.90
2018-06-09T00:57:21.025Z,99.90
2018-06-09T00:59:49.477Z,99.90
2018-06-09T01:02:17.828Z,99.90
2018-06-09T01:04:46.170Z,99.90
2018-06-09T01:07:14.547Z,99.90
2018-06-09T01:09:42.878Z,99.90
2018-06-09T01:12:11.195Z,99.90
2018-06-09T01:14:39.602Z,99.90
2018-06-09T01:17:07.959Z,99.90
2018-06-09T01:19:36.398Z,99.90
2018-06-09T01:22:04.894Z,99.90
2018-06-09T01:24:33.245Z,99.90
2018-06-09T01:27:01.602Z,99.90
2018-06-09T01:29:29.949Z,99.90
2018-06-09T01:31:58.265Z,99.90
2018-06-09T01:34:26.751Z,99.90
2018-06-09T01:36:55.089Z,99.90
2018-06-09T01:39:23.469Z,99.90
2018-06-09T01:41:51.826Z,99.90
2018-06-09T01:44:20.196Z,99.90
2018-06-09T01:46:48.505Z,99.90
2018-06-09T01:49:16.862Z,99.90
2018-06-09T01:51:45.246Z,99.90
2018-06-09T01:54:13.657Z,99.90
2018-06-09T01:56:42.076Z,99.90
2018-06-09T01:59:10.399Z,99.90
2018-06-09T02:01:38.810Z,99.90
2018-06-09T02:04:07.134Z,99.90
2018-06-09T02:06:35.486Z,99.90
2018-06-09T02:09:05.840Z,99.90
2018-06-09T02:11:34.149Z,99.90
2018-06-09T02:14:02.468Z,99.90
2018-06-09T02:16:30.845Z,99.90
2018-06-09T02:18:59.166Z,99.90
2018-06-09T02:21:27.578Z,99.90
2018-06-09T02:26:24.075Z,99.90
2018-06-09T02:28:52.341Z,99.90
2018-06-09T02:31:20.689Z,99.90
2018-06-09T02:36:17.036Z,99.90
2018-06-09T02:38:45.358Z,99.90
2018-06-09T02:41:13.772Z,99.90
2018-06-09T02:43:42.033Z,99.90
2018-06-09T02:46:10.322Z,99.90
2018-06-09T02:48:38.678Z,99.90
2018-06-09T02:51:07.029Z,99.90
2018-06-09T02:53:35.297Z,99.90
2018-06-09T02:56:03.729Z,99.90
2018-06-09T02:58:32.017Z,99.90
2018-06-09T03:01:00.294Z,99.90
2018-06-09T03:03:28.627Z,99.90
2018-06-09T03:05:56.902Z,99.90
2018-06-09T03:08:25.228Z,99.90
2018-06-09T03:10:53.570Z,99.90
2018-06-09T03:13:21.850Z,99.90
2018-06-09T03:15:50.166Z,99.90
2018-06-09T03:18:18.465Z,99.90
2018-06-09T03:20:46.788Z,99.90
2018-06-09T03:23:15.099Z,99.90
2018-06-09T03:25:43.425Z,99.90
2018-06-09T03:28:11.680Z,99.90
2018-06-09T03:30:40.092Z,99.90
2018-06-09T03:33:08.412Z,99.90
2018-06-09T03:35:36.732Z,99.90
2018-06-09T03:38:05.036Z,99.90
2018-06-09T03:40:33.320Z,99.90
2018-06-09T03:43:01.674Z,99.90
2018-06-09T03:45:30.028Z,99.90
2018-06-09T03:47:58.351Z,99.90
2018-06-09T03:50:26.657Z,99.90
2018-06-09T03:52:54.983Z,99.90
2018-06-09T03:55:23.325Z,99.90
2018-06-09T03:57:51.655Z,99.90
2018-06-09T04:00:19.920Z,99.90
2018-06-09T04:02:48.197Z,99.90
2018-06-09T04:05:16.516Z,99.90
2018-06-09T04:07:44.844Z,99.90
2018-06-09T04:10:13.159Z,99.90
2018-06-09T04:12:41.465Z,99.90
2018-06-09T04:15:09.808Z,99.90
2018-06-09T04:17:38.132Z,99.90
2018-06-09T04:20:06.429Z,99.90
2018-06-09T04:22:34.760Z,99.90
2018-06-09T04:25:03.064Z,99.90
2018-06-09T04:27:31.590Z,99.90
2018-06-09T04:30:00.205Z,99.90
2018-06-09T04:32:28.527Z,99.90
2018-06-09T04:34:56.837Z,99.90
2018-06-09T04:37:25.209Z,99.90
2018-06-09T04:39:53.628Z,99.90
2018-06-09T04:42:21.914Z,99.90
2018-06-09T04:44:50.233Z,99.90
2018-06-09T04:47:18.506Z,99.90
2018-06-09T04:49:46.833Z,99.90
2018-06-09T04:52:15.150Z,99.90
2018-06-09T04:54:43.445Z,99.90
2018-06-09T04:57:11.768Z,99.90
2018-06-09T04:59:40.095Z,99.90
2018-06-09T05:02:08.408Z,99.90
2018-06-09T05:04:36.758Z,99.90
2018-06-09T05:07:05.166Z,99.90
2018-06-09T05:09:33.554Z,99.90
2018-06-09T05:12:01.885Z,99.90
2018-06-09T05:14:30.170Z,99.90
2018-06-09T05:16:58.518Z,99.90
2018-06-09T05:19:26.819Z,99.90
2018-06-09T05:21:55.144Z,99.90
2018-06-09T05:24:23.462Z,99.90
2018-06-09T05:29:19.845Z,99.90
2018-06-09T05:31:48.163Z,99.90
2018-06-09T05:34:16.504Z,99.90
2018-06-09T05:36:44.872Z,99.90
2018-06-09T05:39:13.239Z,99.90
2018-06-09T05:41:41.613Z,99.90
2018-06-09T05:44:09.923Z,99.90
2018-06-09T05:46:38.304Z,99.10
2018-06-09T05:49:07.763Z,99.90
2018-06-09T05:51:36.105Z,99.90
2018-06-09T05:54:04.497Z,99.90
2018-06-09T05:56:32.818Z,98.00
2018-06-09T05:59:01.217Z,97.40
2018-06-09T06:01:29.525Z,93.90
2018-06-09T06:03:57.889Z,92.40
2018-06-09T06:06:26.210Z,93.40
2018-06-09T06:08:54.641Z,89.80
2018-06-09T06:11:23.093Z,89.70
2018-06-09T06:13:51.497Z,89.50
2018-06-09T06:16:19.842Z,88.00
2018-06-09T06:18:48.197Z,84.50
2018-06-09T06:21:16.495Z,77.80
2018-06-09T06:23:44.833Z,82.30
2018-06-09T06:26:13.170Z,80.50
2018-06-09T06:28:41.517Z,79.20
2018-06-09T06:31:09.848Z,80.60
2018-06-09T06:33:38.281Z,78.00
2018-06-09T06:36:06.661Z,74.90
2018-06-09T06:38:35.064Z,76.00
2018-06-09T06:41:03.587Z,77.00
2018-06-09T06:43:31.931Z,68.30
2018-06-09T06:46:00.220Z,69.40
2018-06-09T06:48:28.545Z,67.80
2018-06-09T06:50:56.926Z,64.60
2018-06-09T06:53:25.319Z,66.00
2018-06-09T06:55:53.701Z,62.20
2018-06-09T06:58:21.998Z,65.60
2018-06-09T07:00:50.307Z,62.30
2018-06-09T07:03:18.643Z,66.30
2018-06-09T07:05:46.975Z,62.80
2018-06-09T07:08:15.409Z,63.40
2018-06-09T07:10:43.772Z,66.50
2018-06-09T07:13:12.085Z,66.00
2018-06-09T07:15:40.434Z,67.60
2018-06-09T07:18:08.839Z,69.30
2018-06-09T07:20:37.235Z,63.70
2018-06-09T07:25:33.648Z,65.40
2018-06-09T07:28:02.162Z,67.10
2018-06-09T07:30:30.493Z,66.80
2018-06-09T07:32:58.905Z,67.10
2018-06-09T07:35:27.232Z,66.90
2018-06-09T07:37:55.553Z,61.40
2018-06-09T07:40:23.950Z,58.70
2018-06-09T07:42:52.314Z,57.10
2018-06-09T07:45:20.693Z,59.80
2018-06-09T07:47:49.051Z,57.10
2018-06-09T07:50:17.488Z,57.50
2018-06-09T07:52:46.088Z,59.10
2018-06-09T07:55:14.454Z,59.50
2018-06-09T07:57:42.806Z,61.30
2018-06-09T08:00:11.125Z,62.80
2018-06-09T08:02:39.517Z,65.00
2018-06-09T08:05:07.926Z,64.00
2018-06-09T08:07:36.281Z,63.00
2018-06-09T08:10:04.646Z,63.20
2018-06-09T08:12:32.934Z,58.90
2018-06-09T08:15:01.272Z,59.10
2018-06-09T08:17:29.546Z,56.80
2018-06-09T08:19:57.893Z,58.40
2018-06-09T08:22:26.209Z,57.70
2018-06-09T08:24:54.574Z,56.80
2018-06-09T08:27:22.894Z,54.90
2018-06-09T08:29:51.161Z,52.00
2018-06-09T08:32:19.485Z,49.90
2018-06-09T08:34:47.760Z,49.70
2018-06-09T08:37:16.076Z,51.00
2018-06-09T08:39:44.519Z,49.10
2018-06-09T08:42:12.918Z,47.50
2018-06-09T08:44:41.215Z,49.80
2018-06-09T08:47:09.579Z,48.40
2018-06-09T08:49:37.909Z,53.40
2018-06-09T08:52:06.173Z,54.00
2018-06-09T08:54:34.498Z,57.70
2018-06-09T08:57:02.815Z,59.20
2018-06-09T08:59:31.093Z,56.90
2018-06-09T09:01:59.440Z,56.70
2018-06-09T09:04:27.864Z,55.30
2018-06-09T09:06:56.171Z,57.50
2018-06-09T09:09:24.506Z,57.60
2018-06-09T09:11:52.770Z,60.60
2018-06-09T09:14:21.045Z,58.50
2018-06-09T09:16:49.375Z,60.80
2018-06-09T09:19:17.648Z,59.40
2018-06-09T09:24:14.066Z,63.80
2018-06-09T09:26:42.513Z,62.20
2018-06-09T09:29:10.850Z,61.80
2018-06-09T09:31:39.323Z,64.60
2018-06-09T09:34:07.775Z,69.70
2018-06-09T09:36:36.123Z,66.70
2018-06-09T09:39:07.652Z,65.60
2018-06-09T09:44:04.410Z,68.00
2018-06-09T09:46:32.705Z,68.70
2018-06-09T09:49:01.051Z,69.40
2018-06-09T09:51:29.379Z,72.60
2018-06-09T09:53:57.729Z,72.70
2018-06-09T09:56:26.163Z,70.40
2018-06-09T09:58:54.532Z,71.20
2018-06-09T10:01:22.888Z,69.80
2018-06-09T10:03:51.226Z,73.60
2018-06-09T10:08:47.667Z,74.50
2018-06-09T10:13:44.133Z,72.50
2018-06-09T10:16:12.450Z,72.70
2018-06-09T10:18:40.725Z,76.30
2018-06-09T10:21:09.051Z,74.50
2018-06-09T10:23:37.353Z,73.50
2018-06-09T10:26:05.759Z,77.20
2018-06-09T10:28:34.082Z,75.50
2018-06-09T10:31:08.714Z,75.80
2018-06-09T10:33:37.047Z,76.10
2018-06-09T10:36:05.407Z,74.70
2018-06-09T10:38:33.725Z,73.20
2018-06-09T10:41:02.041Z,72.10
2018-06-09T10:43:30.359Z,76.00
2018-06-09T10:45:58.723Z,72.60
2018-06-09T10:48:27.106Z,75.90
2018-06-09T10:50:55.572Z,74.70
2018-06-09T10:53:23.930Z,73.60
2018-06-09T10:55:52.261Z,71.70
2018-06-09T10:58:20.570Z,73.10
2018-06-09T11:00:48.898Z,76.40
2018-06-09T11:03:17.251Z,75.50
2018-06-09T11:05:45.512Z,76.30
2018-06-09T11:08:13.798Z,75.80
2018-06-09T11:10:42.115Z,78.60
2018-06-09T11:13:10.446Z,81.90
2018-06-09T11:15:38.720Z,84.10
2018-06-09T11:18:07.034Z,81.10
2018-06-09T11:20:35.359Z,81.00
2018-06-09T11:23:03.731Z,91.60
2018-06-09T11:25:32.042Z,92.00
2018-06-09T11:28:00.437Z,95.00
2018-06-09T11:30:28.738Z,96.20
2018-06-09T11:32:57.046Z,98.10
2018-06-09T11:35:25.369Z,98.90
2018-06-09T11:37:53.714Z,99.90
2018-06-09T11:40:22.041Z,99.90
2018-06-09T11:42:50.364Z,99.90
2018-06-09T11:45:18.676Z,99.90
2018-06-09T11:47:46.977Z,99.90
2018-06-09T11:50:15.271Z,99.90
2018-06-09T11:55:11.705Z,99.90
2018-06-09T11:57:40.049Z,99.90
2018-06-09T12:00:08.449Z,99.90
2018-06-09T12:02:36.782Z,99.90
2018-06-09T12:05:05.255Z,99.90
2018-06-09T12:07:33.585Z,99.90
2018-06-09T12:10:01.878Z,99.90
2018-06-09T12:12:30.152Z,99.90
2018-06-09T12:17:26.580Z,99.90
2018-06-09T12:19:54.927Z,99.90
2018-06-09T12:22:23.326Z,99.90
2018-06-09T12:24:51.763Z,99.90
2018-06-09T12:27:20.070Z,99.90
2018-06-09T12:29:48.413Z,99.90
2018-06-09T12:32:16.768Z,99.90
2018-06-09T12:34:45.132Z,99.90
2018-06-09T12:37:13.521Z,99.90
2018-06-09T12:39:41.872Z,99.90
2018-06-09T12:42:10.225Z,99.90
2018-06-09T12:44:38.646Z,99.90
2018-06-09T12:47:06.932Z,99.90
2018-06-09T12:49:35.327Z,99.90
2018-06-09T12:52:03.714Z,99.90
2018-06-09T12:54:32.176Z,99.90
2018-06-09T12:57:00.501Z,99.90
2018-06-09T12:59:28.950Z,99.90
2018-06-09T13:01:57.306Z,99.90
2018-06-09T13:04:25.720Z,99.90
2018-06-09T13:06:54.153Z,99.90
2018-06-09T13:09:22.517Z,99.90
2018-06-09T13:11:50.874Z,99.90
2018-06-09T13:14:19.217Z,99.90
2018-06-09T13:16:47.606Z,99.90
2018-06-09T13:19:16.030Z,99.90
2018-06-09T13:21:44.473Z,99.90
2018-06-09T13:24:12.991Z,99.90
2018-06-09T13:26:41.517Z,99.90
2018-06-09T13:29:09.929Z,99.90
2018-06-09T13:31:38.349Z,99.90
2018-06-09T13:34:06.832Z,99.90
2018-06-09T13:36:35.174Z,99.90
2018-06-09T13:39:03.715Z,99.90
2018-06-09T13:41:32.039Z,99.90
2018-06-09T13:44:00.379Z,99.90
2018-06-09T13:46:28.673Z,99.90
2018-06-09T13:48:57.062Z,99.90
2018-06-09T13:51:25.472Z,99.90
2018-06-09T13:53:53.906Z,99.90
2018-06-09T13:56:22.274Z,99.90
2018-06-09T13:58:50.699Z,99.90
2018-06-09T14:01:19.090Z,99.90
2018-06-09T14:03:47.472Z,99.90
2018-06-09T14:06:15.822Z,99.90
2018-06-09T14:08:44.241Z,99.90
2018-06-09T14:11:12.598Z,99.90
2018-06-09T14:13:40.990Z,99.90
2018-06-09T14:16:09.422Z,99.90
2018-06-09T14:18:37.729Z,99.90
2018-06-09T14:21:06.066Z,99.90
2018-06-09T14:23:34.442Z,99.90
2018-06-09T14:26:03.001Z,99.90
2018-06-09T14:28:31.329Z,99.90
2018-06-09T14:30:59.648Z,99.90
2018-06-09T14:33:28.153Z,99.90
2018-06-09T14:35:56.526Z,99.90
2018-06-09T14:38:25.010Z,99.90
2018-06-09T14:40:53.376Z,99.90
2018-06-09T14:43:21.715Z,99.90
2018-06-09T14:45:50.265Z,99.90
2018-06-09T14:48:18.591Z,99.90
2018-06-09T14:50:46.940Z,99.90
2018-06-09T14:53:15.447Z,99.90
2018-06-09T14:58:12.066Z,99.90
2018-06-09T15:00:40.427Z,99.90
2018-06-09T15:03:08.759Z,99.90
2018-06-09T15:05:37.092Z,99.90
2018-06-09T15:08:05.615Z,99.90
2018-06-09T15:10:33.991Z,99.90
2018-06-09T15:15:30.398Z,99.90
2018-06-09T15:18:05.774Z,99.90
2018-06-09T15:20:34.125Z,99.90
2018-06-09T15:23:02.537Z,99.90
2018-06-09T15:25:30.892Z,99.90
2018-06-09T15:27:59.226Z,99.90
2018-06-09T15:30:27.578Z,99.90
2018-06-09T15:32:56.049Z,99.90
2018-06-09T15:35:24.418Z,99.90
2018-06-09T15:37:53.575Z,99.90
2018-06-09T15:40:22.019Z,99.90
2018-06-09T15:42:50.403Z,99.90
2018-06-09T15:45:27.039Z,99.90
2018-06-09T15:47:55.424Z,99.90
2018-06-09T15:50:23.845Z,99.90
2018-06-09T15:52:52.302Z,99.90
2018-06-09T15:57:48.726Z,99.90
2018-06-09T16:00:17.228Z,99.90
2018-06-09T16:02:45.588Z,99.90
2018-06-09T16:05:13.932Z,99.90
2018-06-09T16:07:42.285Z,99.90
2018-06-09T16:10:10.751Z,99.90
2018-06-09T16:12:39.086Z,99.90
2018-06-09T16:15:07.574Z,99.90
2018-06-09T16:17:35.899Z,99.90
2018-06-09T16:20:04.398Z,99.90
2018-06-09T16:22:32.718Z,99.90
2018-06-09T16:25:01.060Z,99.90
2018-06-09T16:27:29.493Z,99.90
2018-06-09T16:29:57.873Z,99.90
2018-06-09T16:32:26.199Z,99.90
2018-06-09T16:34:54.562Z,99.90
2018-06-09T16:37:22.843Z,99.90
2018-06-09T16:39:51.205Z,99.90
2018-06-09T16:42:19.540Z,99.90
2018-06-09T16:44:47.874Z,99.90
2018-06-09T16:47:18.096Z,99.90
2018-06-09T16:49:46.665Z,99.90
2018-06-09T16:52:14.974Z,99.90
2018-06-09T16:54:43.346Z,99.90
2018-06-09T16:57:11.699Z,99.90
2018-06-09T16:59:40.030Z,99.90
2018-06-09T17:02:08.367Z,99.90
2018-06-09T17:04:36.685Z,99.90
2018-06-09T17:07:05.091Z,99.90
2018-06-09T17:09:33.429Z,99.90
2018-06-09T17:12:01.734Z,99.90
2018-06-09T17:14:30.127Z,99.90
2018-06-09T17:16:59.414Z,99.90
2018-06-09T17:19:27.757Z,99.90
2018-06-09T17:21:56.078Z,99.90
2018-06-09T17:24:24.454Z,99.90
2018-06-09T17:26:52.739Z,99.90
2018-06-09T17:29:21.059Z,99.90
2018-06-09T17:31:49.408Z,99.90
2018-06-09T17:34:17.721Z,99.90
2018-06-09T17:36:46.077Z,99.90
2018-06-09T17:39:14.358Z,99.90
2018-06-09T17:41:42.665Z,99.90
2018-06-09T17:44:11.001Z,99.90
2018-06-09T17:46:39.327Z,99.90
2018-06-09T17:49:07.674Z,99.90
2018-06-09T17:51:36.026Z,99.90
2018-06-09T17:54:04.429Z,99.90
2018-06-09T17:56:32.807Z,99.90
2018-06-09T17:59:01.152Z,99.90
2018-06-09T18:01:29.563Z,99.90
2018-06-09T18:03:57.896Z,99.90
2018-06-09T18:06:26.291Z,99.90
2018-06-09T18:08:54.610Z,99.90
2018-06-09T18:11:22.970Z,99.90
2018-06-09T18:13:51.310Z,99.90
2018-06-09T18:16:19.730Z,99.90
2018-06-09T18:18:48.331Z,99.90
2018-06-09T18:21:17.102Z,99.90
2018-06-09T18:23:45.546Z,99.90
2018-06-09T18:26:13.922Z,99.90
2018-06-09T18:28:42.302Z,99.90
2018-06-09T18:31:10.659Z,99.90
2018-06-09T18:33:39.716Z,99.90
2018-06-09T18:36:08.870Z,99.90
2018-06-09T18:38:37.330Z,99.90
2018-06-09T18:41:05.630Z,99.90
2018-06-09T18:43:33.993Z,99.90
2018-06-09T18:46:02.354Z,99.90
2018-06-09T18:48:30.708Z,99.90
2018-06-09T18:50:59.081Z,99.90
2018-06-09T18:53:27.419Z,99.90
2018-06-09T18:55:55.767Z,99.90
2018-06-09T18:58:24.129Z,99.90
2018-06-09T19:00:52.437Z,99.90
2018-06-09T19:03:20.803Z,99.90
2018-06-09T19:05:49.150Z,99.90
2018-06-09T19:08:17.605Z,99.90
2018-06-09T19:10:46.067Z,99.90
2018-06-09T19:13:14.397Z,99.90
2018-06-09T19:15:42.766Z,99.90
2018-06-09T19:18:11.189Z,99.90
2018-06-09T19:20:39.626Z,99.90
2018-06-09T19:23:08.259Z,99.90
2018-06-09T19:25:36.759Z,99.90
2018-06-09T19:28:05.455Z,99.90
2018-06-09T19:30:33.849Z,99.90
2018-06-09T19:33:02.257Z,99.90
2018-06-09T19:35:30.683Z,99.90
2018-06-09T19:37:59.087Z,99.90
2018-06-09T19:40:27.489Z,99.90
2018-06-09T19:42:55.917Z,99.90
2018-06-09T19:45:24.349Z,99.90
2018-06-09T19:47:52.713Z,99.90
2018-06-09T19:50:21.156Z,99.90
2018-06-09T19:52:49.543Z,99.90
2018-06-09T19:55:17.954Z,99.90
2018-06-09T19:57:46.341Z,99.90
2018-06-09T20:00:14.823Z,99.90
2018-06-09T20:02:43.205Z,99.90
2018-06-09T20:05:11.606Z,99.90
2018-06-09T20:07:39.933Z,99.90
2018-06-09T20:10:08.273Z,99.90
2018-06-09T20:12:36.679Z,99.90
2018-06-09T20:15:05.837Z,99.90
2018-06-09T20:17:34.193Z,99.90
2018-06-09T20:22:30.607Z,99.90
2018-06-09T20:24:58.967Z,99.90
2018-06-09T20:27:27.266Z,99.90
2018-06-09T20:29:55.688Z,99.90
2018-06-09T20:32:24.051Z,99.90
2018-06-09T20:34:52.392Z,99.90
2018-06-09T20:37:20.809Z,99.90
2018-06-09T20:39:49.202Z,99.90
2018-06-09T20:42:17.513Z,99.90
2018-06-09T20:44:46.705Z,99.90
2018-06-09T20:47:21.619Z,99.90
2018-06-09T20:49:49.984Z,99.90
2018-06-09T20:52:18.303Z,99.90
2018-06-09T20:54:46.850Z,99.90
2018-06-09T20:57:15.150Z,99.90
2018-06-09T20:59:43.556Z,99.90
2018-06-09T21:02:11.971Z,99.90
2018-06-09T21:04:40.351Z,99.90
2018-06-09T21:07:09.572Z,99.90
2018-06-09T21:09:37.969Z,99.90
2018-06-09T21:12:06.384Z,99.90
2018-06-09T21:14:34.774Z,99.90
2018-06-09T21:17:03.171Z,99.90
2018-06-09T21:19:31.641Z,99.90
2018-06-09T21:22:00.026Z,99.90
2018-06-09T21:24:28.408Z,99.90
2018-06-09T21:27:02.154Z,99.90
2018-06-09T21:29:38.690Z,99.90
2018-06-09T21:32:10.186Z,99.90
2018-06-09T21:34:55.293Z,99.90
2018-06-09T21:37:29.089Z,99.90
2018-06-09T21:40:01.521Z,99.90
2018-06-09T21:42:33.810Z,99.90
2018-06-09T21:45:09.180Z,99.90
2018-06-09T21:47:37.530Z,99.90
2018-06-09T21:50:05.989Z,99.90
2018-06-09T21:52:34.346Z,99.90
2018-06-09T21:55:02.659Z,99.90
2018-06-09T21:57:31.031Z,99.90
2018-06-09T21:59:59.477Z,99.90
2018-06-09T22:02:27.917Z,99.90
2018-06-09T22:04:56.774Z,99.90
2018-06-09T22:07:25.169Z,99.90
2018-06-09T22:09:53.556Z,99.90
2018-06-09T22:12:21.876Z,99.90
2018-06-09T22:14:50.321Z,99.90
2018-06-09T22:17:18.755Z,99.90
2018-06-09T22:19:47.133Z,99.90
2018-06-09T22:22:15.449Z,99.90
2018-06-09T22:24:43.766Z,99.90
2018-06-09T22:27:12.152Z,99.90
2018-06-09T22:29:40.465Z,99.90
2018-06-09T22:32:08.854Z,99.90
2018-06-09T22:34:43.943Z,99.90
2018-06-09T22:37:12.577Z,99.90
2018-06-09T22:39:40.901Z,99.90
2018-06-09T22:42:15.691Z,99.90
2018-06-09T22:47:12.134Z,99.90
2018-06-09T22:49:40.455Z,99.90
2018-06-09T22:52:08.896Z,99.90
2018-06-09T22:54:37.285Z,99.90
2018-06-09T22:57:05.762Z,99.90
2018-06-09T22:59:34.038Z,99.90
2018-06-09T23:02:02.482Z,99.90
2018-06-09T23:04:30.945Z,99.90
2018-06-09T23:06:59.370Z,99.90
2018-06-09T23:09:27.646Z,99.90
2018-06-09T23:11:56.227Z,99.90
2018-06-09T23:16:52.587Z,99.90
2018-06-09T23:19:20.920Z,99.90
2018-06-09T23:21:49.255Z,99.90
2018-06-09T23:24:17.621Z,99.90
2018-06-09T23:26:45.965Z,99.90
2018-06-09T23:29:14.306Z,99.90
2018-06-09T23:31:42.641Z,99.90
2018-06-09T23:34:11.027Z,99.90
2018-06-09T23:36:39.470Z,99.90
2018-06-09T23:39:07.861Z,99.90
2018-06-09T23:41:36.235Z,99.90
2018-06-09T23:44:04.572Z,99.90
2018-06-09T23:46:32.890Z,99.90
2018-06-09T23:49:01.258Z,99.90
2018-06-09T23:51:29.587Z,99.90
2018-06-09T23:53:57.939Z,99.90
2018-06-09T23:56:26.293Z,99.90
2018-06-09T23:58:54.601Z,99.90
